createdAt,value
2018-11-26T00:00:40.050Z,38.50
2018-11-26T00:01:46.565Z,37.10
2018-11-26T00:02:51.080Z,37.70
2018-11-26T00:03:56.566Z,37.00
2018-11-26T00:05:02.078Z,38.50
2018-11-26T00:06:07.592Z,38.50
2018-11-26T00:07:13.088Z,39.70
2018-11-26T00:08:19.608Z,36.60
2018-11-26T00:09:24.104Z,37.50
2018-11-26T00:10:29.619Z,35.80
2018-11-26T00:11:35.122Z,37.40
2018-11-26T00:12:40.624Z,36.80
2018-11-26T00:13:46.136Z,39.20
2018-11-26T00:14:52.656Z,36.70
2018-11-26T00:15:57.157Z,37.70
2018-11-26T00:17:02.670Z,37.70
2018-11-26T00:18:08.168Z,36.80
2018-11-26T00:19:13.674Z,39.40
2018-11-26T00:20:19.185Z,36.20
2018-11-26T00:21:25.714Z,34.90
2018-11-26T00:22:30.197Z,36.50
2018-11-26T00:23:35.712Z,37.80
2018-11-26T00:24:41.220Z,34.80
2018-11-26T00:25:46.717Z,36.60
2018-11-26T00:26:52.233Z,36.30
2018-11-26T00:27:58.750Z,34.80
2018-11-26T00:29:03.242Z,37.10
2018-11-26T00:30:08.750Z,36.70
2018-11-26T00:31:14.260Z,34.70
2018-11-26T00:32:19.767Z,36.00
2018-11-26T00:33:25.276Z,35.60
2018-11-26T00:34:31.793Z,35.20
2018-11-26T00:35:36.297Z,35.00
2018-11-26T00:36:41.803Z,34.30
2018-11-26T00:37:47.307Z,36.60
2018-11-26T00:38:52.816Z,36.30
2018-11-26T00:39:58.319Z,34.80
2018-11-26T00:41:04.841Z,37.00
2018-11-26T00:42:09.348Z,35.70
2018-11-26T00:43:14.845Z,35.40
2018-11-26T00:44:20.362Z,37.20
2018-11-26T00:45:25.859Z,35.70
2018-11-26T00:46:31.368Z,34.30
2018-11-26T00:47:37.888Z,34.50
2018-11-26T00:48:42.385Z,33.30
2018-11-26T00:49:47.889Z,34.60
2018-11-26T00:50:53.400Z,32.60
2018-11-26T00:51:58.914Z,34.40
2018-11-26T00:53:04.414Z,33.40
2018-11-26T00:54:10.946Z,36.00
2018-11-26T00:55:15.433Z,34.30
2018-11-26T00:56:22.824Z,34.60
2018-11-26T00:57:26.450Z,34.30
2018-11-26T00:58:31.973Z,36.40
2018-11-26T00:59:37.461Z,34.40
2018-11-26T01:00:43.988Z,33.90
2018-11-26T01:01:48.479Z,32.60
2018-11-26T01:02:53.987Z,35.40
2018-11-26T01:03:59.492Z,34.20
2018-11-26T01:05:05.003Z,32.20
2018-11-26T01:06:10.520Z,33.10
2018-11-26T01:07:17.033Z,34.10
2018-11-26T01:08:21.526Z,36.10
2018-11-26T01:09:27.039Z,34.70
2018-11-26T01:10:32.548Z,35.80
2018-11-26T01:11:38.058Z,33.60
2018-11-26T01:12:43.557Z,34.20
2018-11-26T01:13:50.072Z,36.00
2018-11-26T01:14:54.571Z,32.10
2018-11-26T01:16:00.084Z,32.70
2018-11-26T01:17:05.589Z,31.90
2018-11-26T01:18:11.093Z,32.50
2018-11-26T01:19:16.604Z,33.00
2018-11-26T01:20:23.122Z,32.70
2018-11-26T01:21:27.623Z,33.10
2018-11-26T01:22:33.126Z,33.80
2018-11-26T01:23:38.650Z,32.90
2018-11-26T01:24:44.150Z,32.70
2018-11-26T01:25:49.648Z,32.90
2018-11-26T01:26:56.176Z,31.70
2018-11-26T01:28:00.678Z,31.80
2018-11-26T01:29:06.175Z,31.90
2018-11-26T01:30:11.688Z,31.70
2018-11-26T01:31:17.192Z,30.30
2018-11-26T01:32:22.700Z,33.60
2018-11-26T01:33:29.222Z,32.00
2018-11-26T01:34:33.720Z,33.60
2018-11-26T01:35:39.220Z,33.20
2018-11-26T01:36:44.737Z,31.60
2018-11-26T01:37:50.247Z,31.90
2018-11-26T01:38:55.755Z,32.20
2018-11-26T01:40:02.268Z,33.20
2018-11-26T01:41:06.759Z,32.80
2018-11-26T01:42:12.268Z,33.00
2018-11-26T01:43:17.780Z,31.70
2018-11-26T01:44:23.284Z,31.50
2018-11-26T01:45:28.795Z,32.90
2018-11-26T01:46:35.307Z,34.30
2018-11-26T01:47:39.806Z,32.90
2018-11-26T01:48:45.320Z,34.50
2018-11-26T01:49:50.825Z,32.20
2018-11-26T01:50:56.329Z,33.90
2018-11-26T01:52:01.850Z,31.80
2018-11-26T01:53:08.358Z,32.90
2018-11-26T01:54:12.870Z,33.40
2018-11-26T01:55:18.364Z,33.20
2018-11-26T01:56:23.873Z,32.70
2018-11-26T01:57:29.385Z,33.30
2018-11-26T01:58:34.889Z,30.80
2018-11-26T01:59:41.404Z,32.10
2018-11-26T02:00:45.939Z,32.30
2018-11-26T02:01:51.410Z,32.10
2018-11-26T02:02:56.915Z,30.70
2018-11-26T02:04:02.432Z,30.70
2018-11-26T02:05:07.931Z,32.10
2018-11-26T02:06:14.454Z,30.50
2018-11-26T02:07:18.957Z,32.90
2018-11-26T02:08:24.456Z,32.00
2018-11-26T02:09:29.963Z,33.20
2018-11-26T02:10:35.472Z,32.90
2018-11-26T02:11:40.981Z,32.40
2018-11-26T02:12:47.497Z,34.70
2018-11-26T02:13:51.996Z,32.30
2018-11-26T02:14:57.500Z,31.20
2018-11-26T02:16:03.013Z,31.90
2018-11-26T02:17:08.515Z,33.80
2018-11-26T02:18:14.032Z,32.40
2018-11-26T02:19:20.545Z,32.90
2018-11-26T02:20:25.054Z,31.20
2018-11-26T02:21:30.552Z,34.00
2018-11-26T02:22:36.057Z,33.10
2018-11-26T02:23:41.578Z,34.20
2018-11-26T02:24:47.076Z,33.10
2018-11-26T02:25:53.594Z,32.80
2018-11-26T02:26:58.096Z,33.70
2018-11-26T02:28:03.600Z,34.10
2018-11-26T02:29:09.105Z,30.10
2018-11-26T02:30:14.614Z,32.50
2018-11-26T02:31:20.130Z,32.60
2018-11-26T02:32:26.637Z,32.60
2018-11-26T02:33:31.139Z,34.30
2018-11-26T02:34:36.643Z,30.40
2018-11-26T02:35:42.162Z,31.00
2018-11-26T02:36:47.664Z,30.40
2018-11-26T02:37:53.171Z,32.90
2018-11-26T02:38:59.685Z,35.10
2018-11-26T02:40:04.182Z,34.50
2018-11-26T02:41:09.687Z,32.90
2018-11-26T02:42:15.221Z,32.30
2018-11-26T02:43:20.707Z,33.00
2018-11-26T02:44:26.215Z,31.00
2018-11-26T02:45:32.733Z,32.00
2018-11-26T02:46:37.238Z,33.10
2018-11-26T02:47:42.739Z,32.60
2018-11-26T02:48:48.254Z,32.40
2018-11-26T02:49:53.754Z,34.20
2018-11-26T02:50:59.260Z,31.80
2018-11-26T02:52:05.783Z,33.70
2018-11-26T02:53:10.279Z,31.60
2018-11-26T02:54:15.787Z,30.90
2018-11-26T02:55:21.293Z,34.00
2018-11-26T02:56:26.804Z,33.30
2018-11-26T02:57:32.309Z,32.30
2018-11-26T02:58:38.822Z,30.70
2018-11-26T02:59:43.323Z,32.40
2018-11-26T03:00:48.832Z,31.70
2018-11-26T03:01:54.336Z,32.00
2018-11-26T03:02:59.850Z,33.00
2018-11-26T03:04:05.352Z,30.60
2018-11-26T03:05:11.873Z,32.70
2018-11-26T03:06:16.379Z,32.80
2018-11-26T03:07:21.914Z,31.60
2018-11-26T03:08:27.390Z,31.30
2018-11-26T03:09:32.894Z,32.80
2018-11-26T03:10:38.408Z,34.50
2018-11-26T03:11:44.971Z,32.40
2018-11-26T03:12:49.413Z,31.90
2018-11-26T03:13:54.919Z,32.90
2018-11-26T03:15:00.427Z,32.70
2018-11-26T03:16:05.941Z,31.80
2018-11-26T03:17:11.446Z,31.40
2018-11-26T03:18:17.964Z,34.70
2018-11-26T03:19:22.478Z,32.70
2018-11-26T03:20:27.968Z,31.80
2018-11-26T03:21:33.479Z,31.60
2018-11-26T03:22:38.984Z,34.10
2018-11-26T03:23:44.500Z,32.80
2018-11-26T03:24:51.020Z,32.00
2018-11-26T03:25:55.508Z,31.80
2018-11-26T03:27:01.023Z,33.50
2018-11-26T03:28:06.525Z,33.40
2018-11-26T03:29:12.031Z,32.10
2018-11-26T03:30:17.549Z,29.30
2018-11-26T03:31:24.056Z,31.60
2018-11-26T03:32:28.554Z,32.90
2018-11-26T03:33:34.062Z,32.50
2018-11-26T03:34:39.570Z,31.50
2018-11-26T03:35:45.079Z,32.40
2018-11-26T03:36:50.586Z,31.50
2018-11-26T03:37:57.111Z,31.50
2018-11-26T03:39:01.627Z,31.00
2018-11-26T03:40:07.110Z,32.70
2018-11-26T03:41:12.617Z,32.30
2018-11-26T03:42:18.128Z,32.40
2018-11-26T03:43:23.633Z,30.50
2018-11-26T03:44:30.150Z,32.30
2018-11-26T03:45:34.647Z,31.40
2018-11-26T03:46:40.154Z,33.10
2018-11-26T03:47:45.665Z,32.90
2018-11-26T03:48:51.167Z,32.00
2018-11-26T03:49:56.686Z,32.70
2018-11-26T03:51:03.199Z,32.80
2018-11-26T03:52:07.699Z,33.80
2018-11-26T03:53:13.200Z,32.40
2018-11-26T03:54:18.713Z,33.50
2018-11-26T03:55:24.213Z,33.10
2018-11-26T03:56:29.734Z,32.40
2018-11-26T03:57:36.240Z,36.30
2018-11-26T03:58:40.737Z,31.70
2018-11-26T03:59:46.266Z,32.50
2018-11-26T04:00:51.756Z,33.90
2018-11-26T04:01:57.261Z,32.00
2018-11-26T04:03:02.766Z,31.90
2018-11-26T04:04:09.290Z,32.60
2018-11-26T04:05:13.797Z,33.60
2018-11-26T04:06:19.299Z,32.80
2018-11-26T04:07:24.803Z,31.70
2018-11-26T04:08:30.311Z,33.90
2018-11-26T04:09:35.818Z,34.00
2018-11-26T04:10:42.333Z,33.10
2018-11-26T04:11:46.835Z,33.30
2018-11-26T04:12:52.340Z,32.40
2018-11-26T04:13:57.847Z,34.90
2018-11-26T04:15:03.359Z,32.40
2018-11-26T04:16:08.863Z,33.80
2018-11-26T04:17:15.379Z,32.90
2018-11-26T04:18:19.884Z,32.80
2018-11-26T04:19:25.388Z,33.60
2018-11-26T04:20:30.897Z,33.90
2018-11-26T04:21:36.409Z,32.50
2018-11-26T04:22:41.917Z,34.00
2018-11-26T04:23:48.429Z,32.60
2018-11-26T04:24:52.927Z,34.80
2018-11-26T04:25:58.428Z,32.00
2018-11-26T04:27:03.940Z,32.80
2018-11-26T04:28:09.450Z,32.90
2018-11-26T04:29:14.958Z,34.80
2018-11-26T04:30:21.477Z,32.90
2018-11-26T04:31:25.980Z,34.10
2018-11-26T04:32:31.482Z,32.10
2018-11-26T04:33:36.994Z,31.50
2018-11-26T04:34:42.497Z,32.50
2018-11-26T04:35:48.006Z,32.60
2018-11-26T04:36:54.531Z,31.20
2018-11-26T04:37:59.026Z,33.10
2018-11-26T04:39:04.524Z,32.60
2018-11-26T04:40:10.038Z,34.80
2018-11-26T04:41:15.536Z,32.30
2018-11-26T04:42:21.048Z,33.70
2018-11-26T04:43:27.568Z,32.10
2018-11-26T04:44:32.062Z,33.50
2018-11-26T04:45:37.571Z,34.10
2018-11-26T04:46:43.074Z,32.60
2018-11-26T04:47:48.585Z,33.40
2018-11-26T04:48:54.093Z,33.40
2018-11-26T04:50:00.610Z,33.10
2018-11-26T04:51:05.117Z,33.80
2018-11-26T04:52:10.623Z,33.50
2018-11-26T04:53:16.124Z,32.60
2018-11-26T04:54:21.632Z,32.50
2018-11-26T04:55:27.135Z,32.50
2018-11-26T04:56:33.664Z,32.20
2018-11-26T04:57:42.179Z,31.80
2018-11-26T04:58:43.664Z,33.60
2018-11-26T04:59:49.172Z,30.80
2018-11-26T05:00:54.680Z,33.60
2018-11-26T05:02:00.186Z,33.80
2018-11-26T05:03:06.707Z,33.50
2018-11-26T05:04:11.210Z,31.90
2018-11-26T05:05:16.723Z,31.70
2018-11-26T05:06:22.221Z,30.40
2018-11-26T05:07:27.729Z,30.40
2018-11-26T05:08:33.234Z,31.80
2018-11-26T05:09:39.751Z,31.70
2018-11-26T05:10:44.247Z,33.50
2018-11-26T05:11:49.753Z,31.00
2018-11-26T05:12:55.259Z,32.20
2018-11-26T05:14:00.775Z,31.20
2018-11-26T05:15:06.276Z,33.10
2018-11-26T05:16:12.798Z,32.40
2018-11-26T05:17:17.294Z,31.20
2018-11-26T05:18:22.799Z,31.60
2018-11-26T05:19:28.311Z,31.50
2018-11-26T05:20:33.817Z,31.80
2018-11-26T05:21:39.329Z,33.70
2018-11-26T05:22:45.851Z,31.90
2018-11-26T05:23:50.350Z,32.70
2018-11-26T05:24:55.852Z,30.90
2018-11-26T05:26:01.357Z,33.40
2018-11-26T05:27:06.867Z,31.60
2018-11-26T05:28:12.373Z,32.80
2018-11-26T05:29:18.887Z,32.50
2018-11-26T05:30:23.389Z,32.40
2018-11-26T05:31:28.892Z,30.50
2018-11-26T05:32:34.408Z,32.30
2018-11-26T05:33:39.908Z,30.60
2018-11-26T05:34:45.417Z,30.10
2018-11-26T05:35:51.939Z,32.90
2018-11-26T05:36:56.432Z,33.20
2018-11-26T05:38:01.939Z,31.40
2018-11-26T05:39:07.445Z,32.50
2018-11-26T05:40:12.964Z,31.00
2018-11-26T05:41:18.457Z,30.80
2018-11-26T05:42:28.770Z,31.80
2018-11-26T05:43:29.478Z,32.10
2018-11-26T05:44:34.984Z,32.20
2018-11-26T05:45:40.495Z,29.90
2018-11-26T05:46:46.000Z,31.40
2018-11-26T05:47:51.505Z,30.70
2018-11-26T05:48:58.030Z,30.70
2018-11-26T05:50:02.517Z,32.10
2018-11-26T05:51:08.030Z,33.00
2018-11-26T05:52:13.550Z,33.00
2018-11-26T05:53:19.046Z,32.50
2018-11-26T05:54:24.554Z,32.00
2018-11-26T05:55:31.077Z,30.30
2018-11-26T05:56:35.581Z,30.90
2018-11-26T05:57:41.076Z,32.70
2018-11-26T05:58:46.583Z,30.80
2018-11-26T05:59:52.089Z,31.80
2018-11-26T06:00:57.598Z,33.90
2018-11-26T06:02:04.115Z,32.50
2018-11-26T06:03:08.613Z,33.90
2018-11-26T06:04:14.131Z,33.30
2018-11-26T06:05:19.628Z,30.40
2018-11-26T06:06:25.141Z,31.10
2018-11-26T06:07:30.640Z,30.40
2018-11-26T06:08:37.159Z,31.80
2018-11-26T06:09:41.657Z,30.80
2018-11-26T06:10:47.161Z,29.90
2018-11-26T06:11:52.673Z,30.00
2018-11-26T06:12:58.180Z,32.80
2018-11-26T06:14:03.686Z,31.80
2018-11-26T06:15:10.203Z,30.80
2018-11-26T06:16:14.704Z,30.90
2018-11-26T06:17:20.210Z,30.00
2018-11-26T06:18:25.718Z,32.50
2018-11-26T06:19:31.224Z,30.10
2018-11-26T06:20:36.737Z,33.20
2018-11-26T06:21:43.252Z,31.10
2018-11-26T06:22:47.751Z,30.60
2018-11-26T06:23:53.266Z,30.90
2018-11-26T06:24:58.761Z,30.90
2018-11-26T06:26:04.279Z,29.80
2018-11-26T06:27:09.782Z,29.20
2018-11-26T06:28:16.307Z,29.60
2018-11-26T06:29:20.795Z,30.40
2018-11-26T06:30:26.296Z,29.40
2018-11-26T06:31:31.804Z,30.60
2018-11-26T06:32:37.315Z,32.20
2018-11-26T06:33:42.827Z,30.00
2018-11-26T06:34:49.343Z,31.40
2018-11-26T06:35:53.853Z,30.40
2018-11-26T06:36:59.349Z,30.10
2018-11-26T06:38:04.854Z,30.10
2018-11-26T06:39:10.355Z,29.20
2018-11-26T06:40:15.870Z,31.70
2018-11-26T06:41:22.384Z,29.00
2018-11-26T06:42:26.889Z,29.60
2018-11-26T06:43:32.393Z,30.40
2018-11-26T06:44:37.901Z,30.80
2018-11-26T06:45:43.408Z,30.00
2018-11-26T06:46:48.914Z,30.70
2018-11-26T06:47:55.430Z,29.10
2018-11-26T06:48:59.930Z,28.70
2018-11-26T06:50:05.434Z,29.70
2018-11-26T06:51:10.951Z,28.90
2018-11-26T06:52:16.461Z,30.70
2018-11-26T06:53:21.960Z,29.40
2018-11-26T06:54:28.481Z,27.50
2018-11-26T06:55:32.975Z,30.50
2018-11-26T06:56:38.486Z,31.40
2018-11-26T06:57:43.988Z,30.30
2018-11-26T06:58:49.504Z,28.70
2018-11-26T06:59:55.004Z,29.70
2018-11-26T07:01:01.528Z,29.50
2018-11-26T07:02:06.032Z,27.80
2018-11-26T07:03:11.526Z,29.90
2018-11-26T07:04:17.041Z,28.10
2018-11-26T07:05:22.550Z,29.90
2018-11-26T07:06:28.053Z,31.10
2018-11-26T07:07:34.569Z,28.80
2018-11-26T07:08:39.072Z,30.70
2018-11-26T07:09:44.570Z,29.60
2018-11-26T07:10:50.081Z,29.00
2018-11-26T07:11:55.587Z,28.40
2018-11-26T07:13:01.097Z,29.00
2018-11-26T07:14:07.617Z,28.20
2018-11-26T07:15:12.118Z,29.20
2018-11-26T07:16:17.627Z,27.70
2018-11-26T07:17:23.127Z,28.00
2018-11-26T07:18:28.641Z,28.10
2018-11-26T07:19:34.145Z,28.60
2018-11-26T07:20:40.664Z,28.60
2018-11-26T07:21:45.166Z,29.40
2018-11-26T07:22:50.670Z,28.10
2018-11-26T07:23:56.172Z,28.70
2018-11-26T07:26:07.241Z,27.70
2018-11-26T07:27:13.733Z,29.40
2018-11-26T07:28:18.240Z,29.50
2018-11-26T07:29:24.307Z,29.70
2018-11-26T07:30:29.261Z,30.80
2018-11-26T07:31:35.769Z,28.50
2018-11-26T07:32:41.312Z,31.30
2018-11-26T07:33:45.783Z,29.70
2018-11-26T07:34:51.282Z,31.20
2018-11-26T07:35:56.800Z,31.00
2018-11-26T07:37:03.317Z,29.50
2018-11-26T07:38:08.824Z,29.00
2018-11-26T07:39:13.347Z,29.70
2018-11-26T07:40:18.821Z,31.10
2018-11-26T07:41:24.339Z,30.70
2018-11-26T07:42:30.857Z,30.40
2018-11-26T07:43:36.350Z,28.20
2018-11-26T07:44:40.867Z,30.30
2018-11-26T07:45:46.350Z,29.30
2018-11-26T07:46:51.870Z,29.80
2018-11-26T07:47:58.393Z,31.40
2018-11-26T07:49:03.894Z,30.20
2018-11-26T07:50:08.394Z,28.00
2018-11-26T07:51:13.893Z,29.40
2018-11-26T07:52:19.417Z,29.70
2018-11-26T07:53:25.917Z,31.00
2018-11-26T07:54:31.425Z,29.80
2018-11-26T07:55:35.942Z,28.90
2018-11-26T07:56:41.448Z,30.50
2018-11-26T07:57:46.948Z,30.80
2018-11-26T07:58:53.453Z,30.30
2018-11-26T07:59:58.968Z,29.70
2018-11-26T08:01:03.462Z,29.30
2018-11-26T08:02:08.976Z,27.60
2018-11-26T08:03:14.472Z,30.70
2018-11-26T08:04:21.004Z,28.50
2018-11-26T08:05:26.527Z,29.40
2018-11-26T08:06:31.025Z,30.60
2018-11-26T08:07:36.511Z,30.30
2018-11-26T08:08:42.018Z,30.20
2018-11-26T08:09:48.541Z,30.00
2018-11-26T08:10:54.040Z,29.70
2018-11-26T08:11:58.541Z,29.20
2018-11-26T08:13:04.054Z,31.90
2018-11-26T08:14:09.557Z,29.40
2018-11-26T08:15:16.071Z,28.60
2018-11-26T08:16:21.590Z,28.60
2018-11-26T08:17:26.092Z,29.60
2018-11-26T08:18:31.590Z,26.90
2018-11-26T08:19:37.101Z,26.80
2018-11-26T08:20:43.613Z,29.10
2018-11-26T08:21:49.133Z,30.20
2018-11-26T08:22:53.620Z,28.70
2018-11-26T08:23:59.135Z,30.60
2018-11-26T08:25:04.634Z,27.00
2018-11-26T08:26:11.155Z,28.30
2018-11-26T08:27:16.659Z,29.40
2018-11-26T08:28:21.793Z,29.00
2018-11-26T08:29:26.666Z,29.30
2018-11-26T08:30:32.181Z,27.50
2018-11-26T08:31:38.694Z,28.30
2018-11-26T08:32:44.193Z,29.40
2018-11-26T08:33:48.702Z,29.00
2018-11-26T08:34:54.210Z,28.20
2018-11-26T08:35:59.717Z,27.00
2018-11-26T08:37:06.231Z,27.90
2018-11-26T08:38:11.745Z,29.20
2018-11-26T08:39:16.233Z,28.10
2018-11-26T08:40:21.748Z,26.40
2018-11-26T08:41:27.253Z,32.10
2018-11-26T08:42:33.766Z,30.10
2018-11-26T08:43:39.288Z,27.70
2018-11-26T08:44:43.771Z,28.20
2018-11-26T08:45:49.274Z,29.30
2018-11-26T08:46:54.826Z,29.30
2018-11-26T08:48:01.302Z,29.00
2018-11-26T08:49:06.819Z,28.40
2018-11-26T08:50:11.315Z,27.70
2018-11-26T08:51:16.827Z,29.20
2018-11-26T08:52:22.332Z,28.80
2018-11-26T08:53:28.852Z,30.70
2018-11-26T08:54:34.351Z,29.50
2018-11-26T08:55:38.848Z,28.60
2018-11-26T08:56:44.364Z,28.90
2018-11-26T08:57:49.878Z,29.80
2018-11-26T08:58:56.395Z,27.90
2018-11-26T09:00:01.892Z,29.80
2018-11-26T09:01:06.393Z,31.40
2018-11-26T09:02:11.901Z,29.30
2018-11-26T09:03:17.414Z,28.30
2018-11-26T09:04:23.930Z,29.30
2018-11-26T09:05:29.436Z,29.80
2018-11-26T09:06:33.944Z,31.40
2018-11-26T09:07:39.455Z,28.30
2018-11-26T09:08:44.963Z,27.30
2018-11-26T09:09:51.473Z,28.50
2018-11-26T09:10:56.983Z,30.30
2018-11-26T09:12:01.480Z,30.20
2018-11-26T09:13:06.995Z,29.60
2018-11-26T09:14:12.485Z,29.20
2018-11-26T09:15:19.009Z,30.90
2018-11-26T09:16:24.510Z,30.60
2018-11-26T09:17:29.014Z,31.30
2018-11-26T09:18:34.524Z,30.70
2018-11-26T09:19:40.027Z,29.80
2018-11-26T09:20:46.554Z,30.60
2018-11-26T09:21:52.064Z,30.30
2018-11-26T09:22:56.551Z,30.10
2018-11-26T09:24:02.078Z,31.30
2018-11-26T09:25:07.573Z,31.10
2018-11-26T09:26:14.104Z,31.90
2018-11-26T09:27:19.607Z,32.30
2018-11-26T09:28:24.096Z,31.40
2018-11-26T09:29:29.604Z,29.60
2018-11-26T09:30:35.118Z,29.50
2018-11-26T09:31:41.631Z,30.40
2018-11-26T09:32:47.155Z,34.10
2018-11-26T09:33:51.632Z,33.60
2018-11-26T09:34:57.150Z,32.10
2018-11-26T09:36:02.651Z,30.70
2018-11-26T09:37:09.175Z,32.40
2018-11-26T09:38:14.671Z,34.90
2018-11-26T09:39:19.168Z,30.60
2018-11-26T09:40:24.693Z,33.60
2018-11-26T09:41:30.190Z,31.80
2018-11-26T09:42:36.713Z,32.90
2018-11-26T09:43:42.215Z,32.60
2018-11-26T09:44:46.713Z,31.70
2018-11-26T09:45:52.221Z,33.30
2018-11-26T09:46:57.736Z,32.40
2018-11-26T09:48:04.246Z,33.70
2018-11-26T09:49:09.749Z,32.30
2018-11-26T09:50:14.252Z,31.30
2018-11-26T09:51:19.762Z,33.20
2018-11-26T09:52:25.276Z,33.70
2018-11-26T09:53:31.799Z,33.50
2018-11-26T09:54:37.314Z,32.60
2018-11-26T09:55:41.788Z,33.70
2018-11-26T09:56:47.308Z,32.90
2018-11-26T09:57:52.803Z,32.20
2018-11-26T09:58:59.333Z,32.70
2018-11-26T10:00:04.848Z,33.30
2018-11-26T10:01:09.364Z,31.90
2018-11-26T10:02:14.838Z,33.00
2018-11-26T10:03:20.358Z,33.80
2018-11-26T10:04:26.864Z,32.60
2018-11-26T10:05:32.375Z,34.60
2018-11-26T10:06:36.880Z,33.40
2018-11-26T10:07:42.374Z,32.40
2018-11-26T10:08:47.886Z,32.50
2018-11-26T10:09:54.410Z,31.50
2018-11-26T10:10:59.919Z,32.20
2018-11-26T10:12:04.425Z,31.50
2018-11-26T10:13:09.942Z,33.20
2018-11-26T10:14:15.427Z,34.80
2018-11-26T10:15:21.943Z,34.70
2018-11-26T10:16:27.463Z,33.80
2018-11-26T10:17:31.953Z,33.40
2018-11-26T10:18:37.453Z,34.70
2018-11-26T10:19:42.972Z,34.10
2018-11-26T10:20:49.487Z,36.00
2018-11-26T10:21:55.010Z,33.10
2018-11-26T10:22:59.493Z,31.40
2018-11-26T10:24:04.999Z,32.80
2018-11-26T10:25:10.514Z,35.50
2018-11-26T10:26:17.036Z,33.60
2018-11-26T10:27:22.543Z,34.20
2018-11-26T10:28:27.047Z,34.10
2018-11-26T10:29:32.559Z,35.60
2018-11-26T10:30:38.049Z,34.40
2018-11-26T10:31:44.575Z,34.30
2018-11-26T10:32:50.072Z,35.70
2018-11-26T10:33:54.602Z,35.30
2018-11-26T10:35:00.103Z,34.60
2018-11-26T10:36:05.591Z,35.60
2018-11-26T10:37:12.105Z,33.50
2018-11-26T10:38:17.620Z,36.20
2018-11-26T10:39:22.128Z,35.60
2018-11-26T10:40:27.617Z,36.00
2018-11-26T10:41:33.128Z,35.80
2018-11-26T10:42:39.657Z,37.20
2018-11-26T10:43:45.150Z,37.40
2018-11-26T10:44:49.654Z,39.20
2018-11-26T10:45:55.170Z,35.30
2018-11-26T10:47:00.673Z,37.90
2018-11-26T10:48:07.192Z,36.10
2018-11-26T10:49:12.689Z,35.20
2018-11-26T10:50:17.194Z,37.60
2018-11-26T10:51:22.710Z,35.50
2018-11-26T10:52:28.214Z,36.60
2018-11-26T10:53:34.740Z,35.90
2018-11-26T10:54:40.236Z,35.90
2018-11-26T10:55:44.734Z,34.90
2018-11-26T10:56:50.257Z,36.70
2018-11-26T10:57:55.755Z,37.10
2018-11-26T10:59:02.288Z,37.50
2018-11-26T11:00:07.796Z,36.60
2018-11-26T11:01:12.271Z,36.20
2018-11-26T11:02:17.815Z,38.50
2018-11-26T11:03:23.304Z,34.90
2018-11-26T11:04:29.816Z,37.50
2018-11-26T11:05:35.392Z,36.40
2018-11-26T11:06:39.823Z,36.30
2018-11-26T11:07:45.331Z,39.60
2018-11-26T11:08:50.837Z,37.10
2018-11-26T11:09:57.367Z,42.80
2018-11-26T11:11:02.859Z,36.20
2018-11-26T11:12:07.355Z,36.40
2018-11-26T11:13:12.870Z,37.30
2018-11-26T11:14:18.374Z,38.40
2018-11-26T11:15:24.905Z,36.10
2018-11-26T11:16:30.405Z,37.00
2018-11-26T11:17:34.904Z,37.00
2018-11-26T11:18:40.421Z,40.50
2018-11-26T11:19:45.921Z,36.60
2018-11-26T11:20:52.444Z,37.50
2018-11-26T11:21:57.963Z,37.10
2018-11-26T11:23:02.444Z,36.10
2018-11-26T11:24:07.963Z,36.60
2018-11-26T11:25:13.461Z,35.40
2018-11-26T11:26:19.987Z,35.90
2018-11-26T11:27:25.501Z,35.20
2018-11-26T11:28:29.984Z,38.00
2018-11-26T11:29:35.503Z,36.90
2018-11-26T11:30:41.001Z,39.20
2018-11-26T11:31:47.523Z,38.60
2018-11-26T11:32:53.035Z,36.80
2018-11-26T11:33:57.578Z,38.10
2018-11-26T11:35:03.048Z,39.00
2018-11-26T11:36:08.555Z,36.00
2018-11-26T11:37:15.074Z,36.60
2018-11-26T11:38:20.581Z,39.80
2018-11-26T11:39:25.080Z,35.50
2018-11-26T11:40:30.598Z,42.70
2018-11-26T11:41:36.107Z,55.60
2018-11-26T11:42:42.610Z,42.00
2018-11-26T11:43:48.125Z,39.10
2018-11-26T11:44:52.623Z,36.80
2018-11-26T11:45:58.138Z,35.40
2018-11-26T11:47:03.661Z,35.30
2018-11-26T11:48:10.153Z,39.20
2018-11-26T11:49:15.675Z,35.40
2018-11-26T11:50:20.166Z,35.00
2018-11-26T11:51:25.677Z,37.70
2018-11-26T11:52:31.180Z,37.40
2018-11-26T11:53:37.702Z,35.60
2018-11-26T11:54:43.219Z,36.10
2018-11-26T11:55:47.713Z,37.20
2018-11-26T11:56:53.228Z,37.70
2018-11-26T11:57:58.727Z,36.10
2018-11-26T11:59:05.243Z,34.60
2018-11-26T12:00:10.751Z,33.90
2018-11-26T12:01:15.245Z,37.70
2018-11-26T12:02:20.761Z,35.10
2018-11-26T12:03:26.298Z,35.10
2018-11-26T12:04:32.799Z,37.20
2018-11-26T12:05:38.319Z,48.60
2018-11-26T12:06:42.805Z,34.80
2018-11-26T12:07:48.317Z,34.60
2018-11-26T12:08:53.817Z,36.00
2018-11-26T12:10:00.328Z,35.40
2018-11-26T12:11:05.838Z,33.20
2018-11-26T12:12:10.337Z,36.20
2018-11-26T12:13:15.848Z,36.60
2018-11-26T12:14:21.379Z,34.70
2018-11-26T12:15:27.881Z,34.50
2018-11-26T12:16:33.391Z,33.60
2018-11-26T12:17:37.887Z,32.90
2018-11-26T12:18:43.396Z,36.10
2018-11-26T12:19:48.906Z,33.80
2018-11-26T12:20:55.421Z,36.30
2018-11-26T12:22:00.944Z,33.90
2018-11-26T12:23:05.445Z,33.70
2018-11-26T12:24:10.937Z,35.80
2018-11-26T12:25:16.458Z,34.80
2018-11-26T12:26:22.972Z,34.20
2018-11-26T12:27:28.493Z,31.60
2018-11-26T12:28:32.979Z,32.70
2018-11-26T12:29:38.494Z,32.40
2018-11-26T12:30:43.993Z,31.10
2018-11-26T12:31:50.510Z,33.80
2018-11-26T12:32:56.024Z,33.70
2018-11-26T12:34:00.522Z,33.30
2018-11-26T12:35:06.030Z,34.20
2018-11-26T12:36:11.534Z,33.00
2018-11-26T12:37:18.056Z,35.40
2018-11-26T12:38:23.581Z,34.00
2018-11-26T12:39:28.071Z,34.60
2018-11-26T12:40:33.574Z,35.00
2018-11-26T12:41:39.096Z,34.90
2018-11-26T12:42:45.603Z,32.30
2018-11-26T12:43:51.152Z,36.00
2018-11-26T12:44:55.610Z,35.10
2018-11-26T12:46:01.137Z,33.30
2018-11-26T12:47:06.629Z,34.60
2018-11-26T12:48:13.158Z,33.70
2018-11-26T12:49:18.645Z,35.60
2018-11-26T12:50:23.148Z,34.30
2018-11-26T12:51:28.675Z,35.40
2018-11-26T12:52:34.186Z,36.40
2018-11-26T12:53:40.710Z,35.40
2018-11-26T12:54:46.194Z,37.70
2018-11-26T12:55:50.689Z,36.80
2018-11-26T12:56:56.210Z,38.50
2018-11-26T12:58:01.743Z,39.40
2018-11-26T12:59:08.239Z,39.10
2018-11-26T13:00:13.734Z,39.60
2018-11-26T13:01:18.232Z,38.40
2018-11-26T13:02:23.741Z,39.40
2018-11-26T13:03:29.256Z,39.40
2018-11-26T13:04:35.770Z,41.40
2018-11-26T13:05:41.528Z,42.70
2018-11-26T13:06:45.774Z,40.40
2018-11-26T13:07:51.279Z,41.80
2018-11-26T13:08:56.806Z,40.00
2018-11-26T13:10:03.314Z,40.40
2018-11-26T13:11:08.825Z,42.20
2018-11-26T13:12:13.314Z,44.00
2018-11-26T13:13:18.832Z,42.20
2018-11-26T13:14:24.338Z,42.60
2018-11-26T13:15:30.861Z,43.10
2018-11-26T13:16:36.358Z,42.30
2018-11-26T13:17:40.865Z,41.70
2018-11-26T13:18:46.367Z,39.30
2018-11-26T13:19:51.896Z,38.60
2018-11-26T13:20:58.403Z,41.50
2018-11-26T13:22:03.904Z,36.90
2018-11-26T13:23:08.404Z,39.30
2018-11-26T13:24:13.918Z,38.00
2018-11-26T13:25:19.429Z,42.30
2018-11-26T13:26:25.951Z,37.50
2018-11-26T13:27:31.448Z,40.90
2018-11-26T13:28:35.948Z,39.70
2018-11-26T13:29:41.457Z,39.90
2018-11-26T13:30:46.967Z,38.10
2018-11-26T13:31:53.479Z,41.00
2018-11-26T13:32:59.000Z,38.70
2018-11-26T13:34:03.487Z,37.60
2018-11-26T13:35:08.990Z,36.50
2018-11-26T13:36:14.525Z,37.60
2018-11-26T13:37:21.022Z,38.10
2018-11-26T13:38:26.533Z,39.30
2018-11-26T13:39:31.028Z,40.80
2018-11-26T13:40:36.537Z,36.80
2018-11-26T13:41:42.062Z,38.30
2018-11-26T13:42:48.562Z,37.70
2018-11-26T13:43:54.080Z,39.60
2018-11-26T13:44:58.561Z,36.00
2018-11-26T13:46:04.078Z,37.90
2018-11-26T13:47:09.583Z,38.00
2018-11-26T13:48:16.115Z,37.50
2018-11-26T13:49:21.611Z,39.50
2018-11-26T13:50:26.136Z,35.60
2018-11-26T13:51:31.635Z,35.60
2018-11-26T13:52:37.133Z,36.10
2018-11-26T13:53:43.643Z,35.30
2018-11-26T13:54:49.169Z,37.20
2018-11-26T13:55:53.659Z,35.50
2018-11-26T13:56:59.165Z,36.70
2018-11-26T13:58:04.680Z,35.10
2018-11-26T13:59:11.190Z,37.20
2018-11-26T14:00:16.708Z,34.20
2018-11-26T14:01:21.190Z,37.80
2018-11-26T14:02:26.694Z,32.70
2018-11-26T14:03:32.205Z,35.10
2018-11-26T14:04:38.737Z,34.40